sensor_id;sensor_type;location;lat;lon;timestamp;P1;durP1;ratioP1;P2;durP2;ratioP2
39300;SDS011;25019;42.626;23.380;2022-08-19T00:00:15;5.77;;;5.27;;
39300;SDS011;25019;42.626;23.380;2022-08-19T00:02:42;5.73;;;5.17;;
39300;SDS011;25019;42.626;23.380;2022-08-19T00:05:09;5.70;;;5.20;;
39300;SDS011;25019;42.626;23.380;2022-08-19T00:07:36;6.23;;;5.07;;
39300;SDS011;25019;42.626;23.380;2022-08-19T00:10:03;5.70;;;5.03;;
39300;SDS011;25019;42.626;23.380;2022-08-19T00:12:30;5.90;;;5.40;;
39300;SDS011;25019;42.626;23.380;2022-08-19T00:14:56;5.87;;;5.47;;
39300;SDS011;25019;42.626;23.380;2022-08-19T00:17:22;5.73;;;5.10;;
39300;SDS011;25019;42.626;23.380;2022-08-19T00:19:47;6.80;;;5.80;;
39300;SDS011;25019;42.626;23.380;2022-08-19T00:22:13;5.70;;;5.20;;
39300;SDS011;25019;42.626;23.380;2022-08-19T00:24:39;5.87;;;5.37;;
39300;SDS011;25019;42.626;23.380;2022-08-19T00:27:06;5.50;;;5.00;;
39300;SDS011;25019;42.626;23.380;2022-08-19T00:29:31;7.60;;;5.57;;
39300;SDS011;25019;42.626;23.380;2022-08-19T00:31:57;7.00;;;6.30;;
39300;SDS011;25019;42.626;23.380;2022-08-19T00:34:25;5.47;;;4.97;;
39300;SDS011;25019;42.626;23.380;2022-08-19T00:36:53;5.93;;;5.37;;
39300;SDS011;25019;42.626;23.380;2022-08-19T00:39:19;7.97;;;5.53;;
39300;SDS011;25019;42.626;23.380;2022-08-19T00:41:45;5.57;;;5.17;;
39300;SDS011;25019;42.626;23.380;2022-08-19T00:44:15;6.03;;;5.40;;
39300;SDS011;25019;42.626;23.380;2022-08-19T00:46:47;6.00;;;5.40;;
39300;SDS011;25019;42.626;23.380;2022-08-19T00:49:16;5.53;;;5.07;;
39300;SDS011;25019;42.626;23.380;2022-08-19T00:51:48;6.17;;;5.57;;
39300;SDS011;25019;42.626;23.380;2022-08-19T00:54:16;6.80;;;6.10;;
39300;SDS011;25019;42.626;23.380;2022-08-19T00:56:43;7.30;;;5.63;;
39300;SDS011;25019;42.626;23.380;2022-08-19T00:59:10;6.57;;;5.43;;
39300;SDS011;25019;42.626;23.380;2022-08-19T01:01:39;6.13;;;5.60;;
39300;SDS011;25019;42.626;23.380;2022-08-19T01:04:07;6.10;;;5.50;;
39300;SDS011;25019;42.626;23.380;2022-08-19T01:06:33;6.23;;;5.37;;
39300;SDS011;25019;42.626;23.380;2022-08-19T01:09:00;6.20;;;5.53;;
39300;SDS011;25019;42.626;23.380;2022-08-19T01:11:27;5.93;;;5.33;;
39300;SDS011;25019;42.626;23.380;2022-08-19T01:13:53;6.37;;;5.87;;
39300;SDS011;25019;42.626;23.380;2022-08-19T01:16:21;6.23;;;5.60;;
39300;SDS011;25019;42.626;23.380;2022-08-19T01:18:49;6.30;;;5.70;;
39300;SDS011;25019;42.626;23.380;2022-08-19T01:21:20;7.50;;;5.20;;
39300;SDS011;25019;42.626;23.380;2022-08-19T01:23:54;6.90;;;6.00;;
39300;SDS011;25019;42.626;23.380;2022-08-19T01:26:21;6.73;;;5.77;;
39300;SDS011;25019;42.626;23.380;2022-08-19T01:28:54;6.40;;;5.80;;
39300;SDS011;25019;42.626;23.380;2022-08-19T01:31:22;6.57;;;5.97;;
39300;SDS011;25019;42.626;23.380;2022-08-19T01:33:51;6.20;;;5.60;;
39300;SDS011;25019;42.626;23.380;2022-08-19T01:36:29;6.40;;;5.80;;
39300;SDS011;25019;42.626;23.380;2022-08-19T01:38:58;7.00;;;6.30;;
39300;SDS011;25019;42.626;23.380;2022-08-19T01:41:24;6.23;;;5.73;;
39300;SDS011;25019;42.626;23.380;2022-08-19T01:43:51;6.23;;;5.73;;
39300;SDS011;25019;42.626;23.380;2022-08-19T01:46:18;6.27;;;5.73;;
39300;SDS011;25019;42.626;23.380;2022-08-19T01:48:44;6.37;;;5.87;;
39300;SDS011;25019;42.626;23.380;2022-08-19T01:51:11;7.47;;;6.47;;
39300;SDS011;25019;42.626;23.380;2022-08-19T01:53:37;8.83;;;6.70;;
39300;SDS011;25019;42.626;23.380;2022-08-19T01:56:03;7.50;;;6.30;;
39300;SDS011;25019;42.626;23.380;2022-08-19T01:58:32;6.77;;;6.17;;
39300;SDS011;25019;42.626;23.380;2022-08-19T02:01:02;6.53;;;5.93;;
39300;SDS011;25019;42.626;23.380;2022-08-19T02:03:28;6.90;;;6.20;;
39300;SDS011;25019;42.626;23.380;2022-08-19T02:05:56;7.20;;;6.50;;
39300;SDS011;25019;42.626;23.380;2022-08-19T02:08:25;6.90;;;6.20;;
39300;SDS011;25019;42.626;23.380;2022-08-19T02:10:52;7.17;;;6.57;;
39300;SDS011;25019;42.626;23.380;2022-08-19T02:13:18;7.10;;;6.40;;
39300;SDS011;25019;42.626;23.380;2022-08-19T02:15:44;6.70;;;6.00;;
39300;SDS011;25019;42.626;23.380;2022-08-19T02:18:10;6.47;;;5.90;;
39300;SDS011;25019;42.626;23.380;2022-08-19T02:20:36;6.47;;;5.97;;
39300;SDS011;25019;42.626;23.380;2022-08-19T02:23:03;7.43;;;6.27;;
39300;SDS011;25019;42.626;23.380;2022-08-19T02:25:30;6.50;;;5.90;;
39300;SDS011;25019;42.626;23.380;2022-08-19T02:27:55;6.53;;;6.00;;
39300;SDS011;25019;42.626;23.380;2022-08-19T02:30:21;7.67;;;6.63;;
39300;SDS011;25019;42.626;23.380;2022-08-19T02:32:47;7.10;;;6.40;;
39300;SDS011;25019;42.626;23.380;2022-08-19T02:35:13;7.30;;;6.57;;
39300;SDS011;25019;42.626;23.380;2022-08-19T02:37:40;6.67;;;6.10;;
39300;SDS011;25019;42.626;23.380;2022-08-19T02:40:26;6.47;;;5.87;;
39300;SDS011;25019;42.626;23.380;2022-08-19T02:42:52;6.53;;;5.97;;
39300;SDS011;25019;42.626;23.380;2022-08-19T02:45:18;7.70;;;6.87;;
39300;SDS011;25019;42.626;23.380;2022-08-19T02:47:43;6.83;;;6.23;;
39300;SDS011;25019;42.626;23.380;2022-08-19T02:50:10;7.20;;;6.50;;
39300;SDS011;25019;42.626;23.380;2022-08-19T02:52:36;7.27;;;6.50;;
39300;SDS011;25019;42.626;23.380;2022-08-19T02:55:01;7.10;;;6.30;;
39300;SDS011;25019;42.626;23.380;2022-08-19T02:57:29;7.00;;;6.27;;
39300;SDS011;25019;42.626;23.380;2022-08-19T02:59:56;6.70;;;6.10;;
39300;SDS011;25019;42.626;23.380;2022-08-19T03:02:22;6.90;;;6.20;;
39300;SDS011;25019;42.626;23.380;2022-08-19T03:04:47;7.17;;;6.47;;
39300;SDS011;25019;42.626;23.380;2022-08-19T03:07:14;7.23;;;6.53;;
39300;SDS011;25019;42.626;23.380;2022-08-19T03:09:41;6.97;;;6.27;;
39300;SDS011;25019;42.626;23.380;2022-08-19T03:12:08;7.47;;;6.77;;
39300;SDS011;25019;42.626;23.380;2022-08-19T03:14:35;6.97;;;6.17;;
39300;SDS011;25019;42.626;23.380;2022-08-19T03:17:02;7.50;;;6.47;;
39300;SDS011;25019;42.626;23.380;2022-08-19T03:19:29;7.40;;;6.53;;
39300;SDS011;25019;42.626;23.380;2022-08-19T03:21:56;9.30;;;6.40;;
39300;SDS011;25019;42.626;23.380;2022-08-19T03:24:23;9.37;;;7.00;;
39300;SDS011;25019;42.626;23.380;2022-08-19T03:26:51;6.80;;;6.20;;
39300;SDS011;25019;42.626;23.380;2022-08-19T03:29:20;7.10;;;6.33;;
39300;SDS011;25019;42.626;23.380;2022-08-19T03:31:46;8.23;;;6.57;;
39300;SDS011;25019;42.626;23.380;2022-08-19T03:34:13;7.50;;;6.80;;
39300;SDS011;25019;42.626;23.380;2022-08-19T03:36:42;7.40;;;6.70;;
39300;SDS011;25019;42.626;23.380;2022-08-19T03:39:09;7.00;;;6.40;;
39300;SDS011;25019;42.626;23.380;2022-08-19T03:41:37;7.87;;;7.07;;
39300;SDS011;25019;42.626;23.380;2022-08-19T03:44:04;8.27;;;6.40;;
39300;SDS011;25019;42.626;23.380;2022-08-19T03:46:31;7.97;;;6.33;;
39300;SDS011;25019;42.626;23.380;2022-08-19T03:48:58;6.63;;;6.03;;
39300;SDS011;25019;42.626;23.380;2022-08-19T03:51:27;7.30;;;6.60;;
39300;SDS011;25019;42.626;23.380;2022-08-19T03:53:58;7.50;;;6.80;;
39300;SDS011;25019;42.626;23.380;2022-08-19T03:56:25;7.23;;;6.63;;
39300;SDS011;25019;42.626;23.380;2022-08-19T03:58:53;7.07;;;6.37;;
39300;SDS011;25019;42.626;23.380;2022-08-19T04:01:21;7.53;;;6.67;;
39300;SDS011;25019;42.626;23.380;2022-08-19T04:03:51;7.17;;;6.43;;
39300;SDS011;25019;42.626;23.380;2022-08-19T04:06:22;7.63;;;6.30;;
39300;SDS011;25019;42.626;23.380;2022-08-19T04:08:51;7.00;;;6.40;;
39300;SDS011;25019;42.626;23.380;2022-08-19T04:11:22;7.70;;;6.53;;
39300;SDS011;25019;42.626;23.380;2022-08-19T04:13:50;6.67;;;6.07;;
39300;SDS011;25019;42.626;23.380;2022-08-19T04:16:20;7.00;;;6.03;;
39300;SDS011;25019;42.626;23.380;2022-08-19T04:18:48;6.33;;;5.67;;
39300;SDS011;25019;42.626;23.380;2022-08-19T04:21:15;5.63;;;5.13;;
39300;SDS011;25019;42.626;23.380;2022-08-19T04:23:46;7.00;;;6.07;;
39300;SDS011;25019;42.626;23.380;2022-08-19T04:26:17;6.90;;;6.20;;
39300;SDS011;25019;42.626;23.380;2022-08-19T04:28:45;6.90;;;6.27;;
39300;SDS011;25019;42.626;23.380;2022-08-19T04:31:15;6.60;;;5.80;;
39300;SDS011;25019;42.626;23.380;2022-08-19T04:33:44;6.03;;;5.43;;
39300;SDS011;25019;42.626;23.380;2022-08-19T04:36:20;7.10;;;5.77;;
39300;SDS011;25019;42.626;23.380;2022-08-19T04:38:48;7.37;;;5.77;;
39300;SDS011;25019;42.626;23.380;2022-08-19T04:41:15;6.33;;;5.73;;
39300;SDS011;25019;42.626;23.380;2022-08-19T04:44:00;8.43;;;5.60;;
39300;SDS011;25019;42.626;23.380;2022-08-19T04:46:27;6.30;;;5.70;;
39300;SDS011;25019;42.626;23.380;2022-08-19T04:48:55;9.07;;;5.77;;
39300;SDS011;25019;42.626;23.380;2022-08-19T04:51:22;7.40;;;5.40;;
39300;SDS011;25019;42.626;23.380;2022-08-19T04:53:48;6.70;;;5.60;;
39300;SDS011;25019;42.626;23.380;2022-08-19T04:56:15;7.70;;;5.67;;
39300;SDS011;25019;42.626;23.380;2022-08-19T04:58:43;6.20;;;5.60;;
39300;SDS011;25019;42.626;23.380;2022-08-19T05:01:23;6.73;;;5.77;;
39300;SDS011;25019;42.626;23.380;2022-08-19T05:03:51;6.50;;;5.23;;
39300;SDS011;25019;42.626;23.380;2022-08-19T05:06:19;8.67;;;5.70;;
39300;SDS011;25019;42.626;23.380;2022-08-19T05:08:46;6.13;;;5.60;;
39300;SDS011;25019;42.626;23.380;2022-08-19T05:11:16;5.97;;;5.33;;
39300;SDS011;25019;42.626;23.380;2022-08-19T05:13:46;6.57;;;5.13;;
39300;SDS011;25019;42.626;23.380;2022-08-19T05:16:14;6.57;;;5.03;;
39300;SDS011;25019;42.626;23.380;2022-08-19T05:18:42;5.47;;;4.97;;
39300;SDS011;25019;42.626;23.380;2022-08-19T05:21:27;6.90;;;5.30;;
39300;SDS011;25019;42.626;23.380;2022-08-19T05:24:13;5.60;;;4.87;;
39300;SDS011;25019;42.626;23.380;2022-08-19T05:26:40;5.63;;;5.13;;
39300;SDS011;25019;42.626;23.380;2022-08-19T05:29:08;5.57;;;5.07;;
39300;SDS011;25019;42.626;23.380;2022-08-19T05:31:35;7.97;;;5.17;;
39300;SDS011;25019;42.626;23.380;2022-08-19T05:34:03;6.90;;;5.30;;
39300;SDS011;25019;42.626;23.380;2022-08-19T05:36:33;7.37;;;5.47;;
39300;SDS011;25019;42.626;23.380;2022-08-19T05:39:01;5.53;;;5.03;;
39300;SDS011;25019;42.626;23.380;2022-08-19T05:41:28;6.73;;;4.93;;
39300;SDS011;25019;42.626;23.380;2022-08-19T05:43:57;6.03;;;4.80;;
39300;SDS011;25019;42.626;23.380;2022-08-19T05:46:25;5.57;;;5.07;;
39300;SDS011;25019;42.626;23.380;2022-08-19T05:48:51;5.80;;;5.27;;
39300;SDS011;25019;42.626;23.380;2022-08-19T05:51:16;7.83;;;5.23;;
39300;SDS011;25019;42.626;23.380;2022-08-19T05:53:42;6.73;;;5.87;;
39300;SDS011;25019;42.626;23.380;2022-08-19T05:56:13;13.70;;;7.33;;
39300;SDS011;25019;42.626;23.380;2022-08-19T05:58:41;13.77;;;8.30;;
39300;SDS011;25019;42.626;23.380;2022-08-19T06:01:11;14.63;;;6.90;;
39300;SDS011;25019;42.626;23.380;2022-08-19T06:03:39;7.27;;;5.93;;
39300;SDS011;25019;42.626;23.380;2022-08-19T06:06:05;8.13;;;6.00;;
39300;SDS011;25019;42.626;23.380;2022-08-19T06:08:33;6.47;;;5.73;;
39300;SDS011;25019;42.626;23.380;2022-08-19T06:13:49;6.47;;;5.43;;
39300;SDS011;25019;42.626;23.380;2022-08-19T06:16:21;8.83;;;5.40;;
39300;SDS011;25019;42.626;23.380;2022-08-19T06:18:53;7.23;;;5.43;;
39300;SDS011;25019;42.626;23.380;2022-08-19T06:21:23;6.70;;;5.73;;
39300;SDS011;25019;42.626;23.380;2022-08-19T06:23:50;6.17;;;5.50;;
39300;SDS011;25019;42.626;23.380;2022-08-19T06:26:17;6.10;;;5.37;;
39300;SDS011;25019;42.626;23.380;2022-08-19T06:28:45;7.80;;;5.90;;
39300;SDS011;25019;42.626;23.380;2022-08-19T06:31:15;6.87;;;5.80;;
39300;SDS011;25019;42.626;23.380;2022-08-19T06:33:42;6.37;;;5.87;;
39300;SDS011;25019;42.626;23.380;2022-08-19T06:36:43;7.30;;;5.63;;
39300;SDS011;25019;42.626;23.380;2022-08-19T06:39:16;5.70;;;5.17;;
39300;SDS011;25019;42.626;23.380;2022-08-19T06:41:45;6.13;;;5.53;;
39300;SDS011;25019;42.626;23.380;2022-08-19T06:44:16;6.53;;;5.70;;
39300;SDS011;25019;42.626;23.380;2022-08-19T06:46:43;8.63;;;6.37;;
39300;SDS011;25019;42.626;23.380;2022-08-19T06:49:09;8.10;;;6.73;;
39300;SDS011;25019;42.626;23.380;2022-08-19T06:51:39;7.27;;;5.97;;
39300;SDS011;25019;42.626;23.380;2022-08-19T06:54:08;8.93;;;6.00;;
39300;SDS011;25019;42.626;23.380;2022-08-19T06:56:34;9.03;;;6.23;;
39300;SDS011;25019;42.626;23.380;2022-08-19T06:59:01;6.70;;;6.10;;
39300;SDS011;25019;42.626;23.380;2022-08-19T07:01:33;10.60;;;6.33;;
39300;SDS011;25019;42.626;23.380;2022-08-19T07:04:04;7.63;;;6.17;;
39300;SDS011;25019;42.626;23.380;2022-08-19T07:06:31;6.63;;;6.00;;
39300;SDS011;25019;42.626;23.380;2022-08-19T07:08:57;6.87;;;6.27;;
39300;SDS011;25019;42.626;23.380;2022-08-19T07:11:23;7.87;;;6.83;;
39300;SDS011;25019;42.626;23.380;2022-08-19T07:13:49;6.73;;;6.03;;
39300;SDS011;25019;42.626;23.380;2022-08-19T07:16:18;8.10;;;5.80;;
39300;SDS011;25019;42.626;23.380;2022-08-19T07:18:48;13.17;;;6.73;;
39300;SDS011;25019;42.626;23.380;2022-08-19T07:21:17;10.83;;;6.77;;
39300;SDS011;25019;42.626;23.380;2022-08-19T07:23:45;9.53;;;5.83;;
39300;SDS011;25019;42.626;23.380;2022-08-19T07:26:15;6.20;;;5.60;;
39300;SDS011;25019;42.626;23.380;2022-08-19T07:28:44;8.37;;;5.93;;
39300;SDS011;25019;42.626;23.380;2022-08-19T07:31:12;7.37;;;5.63;;
39300;SDS011;25019;42.626;23.380;2022-08-19T07:33:40;9.40;;;5.70;;
39300;SDS011;25019;42.626;23.380;2022-08-19T07:36:08;6.70;;;5.83;;
39300;SDS011;25019;42.626;23.380;2022-08-19T07:38:36;6.13;;;5.47;;
39300;SDS011;25019;42.626;23.380;2022-08-19T07:41:04;8.43;;;5.40;;
39300;SDS011;25019;42.626;23.380;2022-08-19T07:43:30;6.37;;;5.40;;
39300;SDS011;25019;42.626;23.380;2022-08-19T07:45:56;8.30;;;5.67;;
39300;SDS011;25019;42.626;23.380;2022-08-19T07:48:23;7.07;;;5.60;;
39300;SDS011;25019;42.626;23.380;2022-08-19T07:50:53;7.23;;;5.63;;
39300;SDS011;25019;42.626;23.380;2022-08-19T07:53:22;7.73;;;5.60;;
39300;SDS011;25019;42.626;23.380;2022-08-19T07:55:48;6.07;;;5.33;;
39300;SDS011;25019;42.626;23.380;2022-08-19T07:58:23;7.03;;;5.33;;
39300;SDS011;25019;42.626;23.380;2022-08-19T08:00:49;6.60;;;5.33;;
39300;SDS011;25019;42.626;23.380;2022-08-19T08:03:17;7.97;;;5.20;;
39300;SDS011;25019;42.626;23.380;2022-08-19T08:06:06;6.53;;;5.17;;
39300;SDS011;25019;42.626;23.380;2022-08-19T08:08:51;8.27;;;5.57;;
39300;SDS011;25019;42.626;23.380;2022-08-19T08:11:35;8.90;;;5.73;;
39300;SDS011;25019;42.626;23.380;2022-08-19T08:14:01;7.57;;;6.00;;
39300;SDS011;25019;42.626;23.380;2022-08-19T08:16:27;9.07;;;5.40;;
39300;SDS011;25019;42.626;23.380;2022-08-19T08:18:56;10.83;;;5.43;;
39300;SDS011;25019;42.626;23.380;2022-08-19T08:21:22;9.13;;;4.97;;
39300;SDS011;25019;42.626;23.380;2022-08-19T08:23:48;6.57;;;6.00;;
39300;SDS011;25019;42.626;23.380;2022-08-19T08:26:14;6.80;;;5.70;;
39300;SDS011;25019;42.626;23.380;2022-08-19T08:28:41;11.67;;;5.70;;
39300;SDS011;25019;42.626;23.380;2022-08-19T08:31:06;7.83;;;5.23;;
39300;SDS011;25019;42.626;23.380;2022-08-19T08:33:32;9.57;;;5.63;;
39300;SDS011;25019;42.626;23.380;2022-08-19T08:35:57;6.07;;;5.40;;
39300;SDS011;25019;42.626;23.380;2022-08-19T08:38:23;6.80;;;5.47;;
39300;SDS011;25019;42.626;23.380;2022-08-19T08:40:50;6.60;;;5.83;;
39300;SDS011;25019;42.626;23.380;2022-08-19T08:46:10;7.27;;;5.33;;
39300;SDS011;25019;42.626;23.380;2022-08-19T08:48:44;6.27;;;4.73;;
39300;SDS011;25019;42.626;23.380;2022-08-19T08:51:22;5.03;;;4.37;;
39300;SDS011;25019;42.626;23.380;2022-08-19T08:53:52;7.57;;;4.60;;
39300;SDS011;25019;42.626;23.380;2022-08-19T08:56:18;4.43;;;4.03;;
39300;SDS011;25019;42.626;23.380;2022-08-19T08:58:54;9.20;;;4.80;;
39300;SDS011;25019;42.626;23.380;2022-08-19T09:01:25;7.77;;;4.80;;
39300;SDS011;25019;42.626;23.380;2022-08-19T09:03:51;5.77;;;4.77;;
39300;SDS011;25019;42.626;23.380;2022-08-19T09:08:51;5.70;;;4.17;;
39300;SDS011;25019;42.626;23.380;2022-08-19T09:11:28;7.07;;;5.07;;
39300;SDS011;25019;42.626;23.380;2022-08-19T09:14:06;7.47;;;4.60;;
39300;SDS011;25019;42.626;23.380;2022-08-19T09:16:40;5.40;;;4.57;;
39300;SDS011;25019;42.626;23.380;2022-08-19T09:19:06;8.37;;;5.13;;
39300;SDS011;25019;42.626;23.380;2022-08-19T09:21:33;5.67;;;3.90;;
39300;SDS011;25019;42.626;23.380;2022-08-19T09:24:02;5.70;;;3.60;;
39300;SDS011;25019;42.626;23.380;2022-08-19T09:26:30;4.30;;;3.50;;
39300;SDS011;25019;42.626;23.380;2022-08-19T09:28:57;5.83;;;3.93;;
39300;SDS011;25019;42.626;23.380;2022-08-19T09:31:24;4.00;;;3.70;;
39300;SDS011;25019;42.626;23.380;2022-08-19T09:33:52;6.57;;;4.60;;
39300;SDS011;25019;42.626;23.380;2022-08-19T09:36:22;6.40;;;3.93;;
39300;SDS011;25019;42.626;23.380;2022-08-19T09:38:50;6.70;;;4.40;;
39300;SDS011;25019;42.626;23.380;2022-08-19T09:41:19;7.50;;;4.20;;
39300;SDS011;25019;42.626;23.380;2022-08-19T09:43:47;4.07;;;3.67;;
39300;SDS011;25019;42.626;23.380;2022-08-19T09:46:17;5.77;;;4.97;;
39300;SDS011;25019;42.626;23.380;2022-08-19T09:48:44;4.87;;;3.60;;
39300;SDS011;25019;42.626;23.380;2022-08-19T09:51:13;5.43;;;4.40;;
39300;SDS011;25019;42.626;23.380;2022-08-19T09:53:43;5.60;;;3.80;;
39300;SDS011;25019;42.626;23.380;2022-08-19T09:56:10;6.80;;;4.20;;
39300;SDS011;25019;42.626;23.380;2022-08-19T09:58:36;6.23;;;3.90;;
39300;SDS011;25019;42.626;23.380;2022-08-19T10:01:03;5.33;;;4.20;;
39300;SDS011;25019;42.626;23.380;2022-08-19T10:03:30;6.00;;;3.93;;
39300;SDS011;25019;42.626;23.380;2022-08-19T10:05:57;6.10;;;4.20;;
39300;SDS011;25019;42.626;23.380;2022-08-19T10:08:27;4.97;;;3.80;;
39300;SDS011;25019;42.626;23.380;2022-08-19T10:10:56;5.90;;;3.70;;
39300;SDS011;25019;42.626;23.380;2022-08-19T10:13:23;5.03;;;3.60;;
39300;SDS011;25019;42.626;23.380;2022-08-19T10:15:53;4.73;;;4.17;;
39300;SDS011;25019;42.626;23.380;2022-08-19T10:18:21;3.97;;;3.63;;
39300;SDS011;25019;42.626;23.380;2022-08-19T10:20:49;6.57;;;3.77;;
39300;SDS011;25019;42.626;23.380;2022-08-19T10:23:18;4.10;;;3.70;;
39300;SDS011;25019;42.626;23.380;2022-08-19T10:25:45;5.63;;;3.73;;
39300;SDS011;25019;42.626;23.380;2022-08-19T10:28:11;5.10;;;4.00;;
39300;SDS011;25019;42.626;23.380;2022-08-19T10:30:37;6.20;;;4.10;;
39300;SDS011;25019;42.626;23.380;2022-08-19T10:33:04;4.77;;;3.70;;
39300;SDS011;25019;42.626;23.380;2022-08-19T10:35:30;4.67;;;3.73;;
39300;SDS011;25019;42.626;23.380;2022-08-19T10:37:57;6.07;;;3.80;;
39300;SDS011;25019;42.626;23.380;2022-08-19T10:40:26;5.83;;;4.50;;
39300;SDS011;25019;42.626;23.380;2022-08-19T10:42:53;6.33;;;3.63;;
39300;SDS011;25019;42.626;23.380;2022-08-19T10:45:20;7.53;;;4.57;;
39300;SDS011;25019;42.626;23.380;2022-08-19T10:47:52;6.13;;;4.03;;
39300;SDS011;25019;42.626;23.380;2022-08-19T10:50:18;6.73;;;4.77;;
39300;SDS011;25019;42.626;23.380;2022-08-19T10:53:03;5.40;;;4.10;;
39300;SDS011;25019;42.626;23.380;2022-08-19T10:55:33;7.33;;;4.10;;
39300;SDS011;25019;42.626;23.380;2022-08-19T10:58:19;5.07;;;4.07;;
39300;SDS011;25019;42.626;23.380;2022-08-19T11:00:53;7.83;;;4.93;;
39300;SDS011;25019;42.626;23.380;2022-08-19T11:03:20;4.00;;;3.63;;
39300;SDS011;25019;42.626;23.380;2022-08-19T11:05:47;8.17;;;4.50;;
39300;SDS011;25019;42.626;23.380;2022-08-19T11:08:22;4.67;;;4.20;;
39300;SDS011;25019;42.626;23.380;2022-08-19T11:10:47;5.23;;;3.93;;
39300;SDS011;25019;42.626;23.380;2022-08-19T11:13:13;4.60;;;3.90;;
39300;SDS011;25019;42.626;23.380;2022-08-19T11:15:38;5.37;;;3.80;;
39300;SDS011;25019;42.626;23.380;2022-08-19T11:18:04;5.57;;;3.63;;
39300;SDS011;25019;42.626;23.380;2022-08-19T11:20:30;4.33;;;3.90;;
39300;SDS011;25019;42.626;23.380;2022-08-19T11:22:56;5.27;;;4.27;;
39300;SDS011;25019;42.626;23.380;2022-08-19T11:25:21;7.70;;;4.50;;
39300;SDS011;25019;42.626;23.380;2022-08-19T11:27:47;5.47;;;4.20;;
39300;SDS011;25019;42.626;23.380;2022-08-19T11:30:16;4.47;;;4.17;;
39300;SDS011;25019;42.626;23.380;2022-08-19T11:32:41;4.50;;;4.10;;
39300;SDS011;25019;42.626;23.380;2022-08-19T11:35:07;4.53;;;4.13;;
39300;SDS011;25019;42.626;23.380;2022-08-19T11:37:33;5.13;;;4.13;;
39300;SDS011;25019;42.626;23.380;2022-08-19T11:40:03;6.33;;;4.07;;
39300;SDS011;25019;42.626;23.380;2022-08-19T11:42:30;4.93;;;4.00;;
39300;SDS011;25019;42.626;23.380;2022-08-19T11:45:14;5.60;;;4.23;;
39300;SDS011;25019;42.626;23.380;2022-08-19T11:47:39;5.23;;;4.67;;
39300;SDS011;25019;42.626;23.380;2022-08-19T11:50:05;6.30;;;4.00;;
39300;SDS011;25019;42.626;23.380;2022-08-19T11:52:31;5.97;;;4.43;;
39300;SDS011;25019;42.626;23.380;2022-08-19T11:54:56;9.10;;;4.33;;
39300;SDS011;25019;42.626;23.380;2022-08-19T11:57:22;4.83;;;3.93;;
39300;SDS011;25019;42.626;23.380;2022-08-19T11:59:51;6.77;;;4.80;;
39300;SDS011;25019;42.626;23.380;2022-08-19T12:02:17;8.23;;;4.30;;
39300;SDS011;25019;42.626;23.380;2022-08-19T12:04:44;5.30;;;4.33;;
39300;SDS011;25019;42.626;23.380;2022-08-19T12:07:10;6.50;;;4.33;;
39300;SDS011;25019;42.626;23.380;2022-08-19T12:09:35;4.57;;;4.17;;
39300;SDS011;25019;42.626;23.380;2022-08-19T12:12:01;6.90;;;4.00;;
39300;SDS011;25019;42.626;23.380;2022-08-19T12:14:27;6.57;;;4.40;;
39300;SDS011;25019;42.626;23.380;2022-08-19T12:16:55;5.83;;;4.20;;
39300;SDS011;25019;42.626;23.380;2022-08-19T12:19:20;5.57;;;4.30;;
39300;SDS011;25019;42.626;23.380;2022-08-19T12:21:46;6.90;;;4.27;;
39300;SDS011;25019;42.626;23.380;2022-08-19T12:24:12;7.67;;;4.37;;
39300;SDS011;25019;42.626;23.380;2022-08-19T12:26:38;5.90;;;4.27;;
39300;SDS011;25019;42.626;23.380;2022-08-19T12:29:04;5.13;;;4.40;;
39300;SDS011;25019;42.626;23.380;2022-08-19T12:31:30;5.13;;;3.93;;
39300;SDS011;25019;42.626;23.380;2022-08-19T12:33:56;6.63;;;4.27;;
39300;SDS011;25019;42.626;23.380;2022-08-19T12:36:22;4.53;;;4.13;;
39300;SDS011;25019;42.626;23.380;2022-08-19T12:38:49;4.83;;;4.07;;
39300;SDS011;25019;42.626;23.380;2022-08-19T12:41:15;5.80;;;4.23;;
39300;SDS011;25019;42.626;23.380;2022-08-19T12:43:43;7.20;;;4.60;;
39300;SDS011;25019;42.626;23.380;2022-08-19T12:46:10;8.20;;;4.87;;
39300;SDS011;25019;42.626;23.380;2022-08-19T12:48:36;5.80;;;5.20;;
39300;SDS011;25019;42.626;23.380;2022-08-19T12:51:08;6.03;;;4.40;;
39300;SDS011;25019;42.626;23.380;2022-08-19T12:53:36;5.93;;;4.50;;
39300;SDS011;25019;42.626;23.380;2022-08-19T12:56:02;4.60;;;4.20;;
39300;SDS011;25019;42.626;23.380;2022-08-19T12:58:28;4.90;;;4.37;;
39300;SDS011;25019;42.626;23.380;2022-08-19T13:00:54;5.70;;;4.90;;
39300;SDS011;25019;42.626;23.380;2022-08-19T13:03:20;6.90;;;4.67;;
39300;SDS011;25019;42.626;23.380;2022-08-19T13:05:50;5.50;;;4.33;;
39300;SDS011;25019;42.626;23.380;2022-08-19T13:08:16;6.97;;;5.13;;
39300;SDS011;25019;42.626;23.380;2022-08-19T13:10:42;5.07;;;4.53;;
39300;SDS011;25019;42.626;23.380;2022-08-19T13:13:08;6.93;;;4.60;;
39300;SDS011;25019;42.626;23.380;2022-08-19T13:15:36;7.77;;;4.73;;
39300;SDS011;25019;42.626;23.380;2022-08-19T13:18:04;8.23;;;4.90;;
39300;SDS011;25019;42.626;23.380;2022-08-19T13:20:31;6.57;;;5.10;;
39300;SDS011;25019;42.626;23.380;2022-08-19T13:22:56;6.10;;;5.60;;
39300;SDS011;25019;42.626;23.380;2022-08-19T13:25:22;7.90;;;5.13;;
39300;SDS011;25019;42.626;23.380;2022-08-19T13:27:48;5.93;;;4.80;;
39300;SDS011;25019;42.626;23.380;2022-08-19T13:30:16;6.97;;;6.27;;
39300;SDS011;25019;42.626;23.380;2022-08-19T13:33:02;11.40;;;5.70;;
39300;SDS011;25019;42.626;23.380;2022-08-19T13:35:46;6.43;;;4.70;;
39300;SDS011;25019;42.626;23.380;2022-08-19T13:38:21;5.80;;;4.90;;
39300;SDS011;25019;42.626;23.380;2022-08-19T13:40:48;7.43;;;4.90;;
39300;SDS011;25019;42.626;23.380;2022-08-19T13:43:15;6.17;;;4.83;;
39300;SDS011;25019;42.626;23.380;2022-08-19T13:45:42;6.70;;;5.10;;
39300;SDS011;25019;42.626;23.380;2022-08-19T13:48:08;5.67;;;4.63;;
39300;SDS011;25019;42.626;23.380;2022-08-19T13:50:35;8.70;;;5.00;;
39300;SDS011;25019;42.626;23.380;2022-08-19T13:53:05;4.77;;;4.37;;
39300;SDS011;25019;42.626;23.380;2022-08-19T13:55:32;6.23;;;4.30;;
39300;SDS011;25019;42.626;23.380;2022-08-19T13:57:58;6.27;;;4.67;;
39300;SDS011;25019;42.626;23.380;2022-08-19T14:00:27;5.73;;;4.90;;
39300;SDS011;25019;42.626;23.380;2022-08-19T14:02:55;6.70;;;4.47;;
39300;SDS011;25019;42.626;23.380;2022-08-19T14:05:22;5.70;;;4.90;;
39300;SDS011;25019;42.626;23.380;2022-08-19T14:07:49;5.53;;;5.03;;
39300;SDS011;25019;42.626;23.380;2022-08-19T14:10:15;7.43;;;4.37;;
39300;SDS011;25019;42.626;23.380;2022-08-19T14:12:42;6.50;;;4.50;;
39300;SDS011;25019;42.626;23.380;2022-08-19T14:15:10;4.70;;;4.30;;
39300;SDS011;25019;42.626;23.380;2022-08-19T14:17:40;5.20;;;4.50;;
39300;SDS011;25019;42.626;23.380;2022-08-19T14:20:08;5.23;;;4.43;;
39300;SDS011;25019;42.626;23.380;2022-08-19T14:22:37;6.87;;;4.80;;
39300;SDS011;25019;42.626;23.380;2022-08-19T14:25:05;7.33;;;5.00;;
39300;SDS011;25019;42.626;23.380;2022-08-19T14:27:33;7.17;;;4.27;;
39300;SDS011;25019;42.626;23.380;2022-08-19T14:29:59;6.23;;;4.87;;
39300;SDS011;25019;42.626;23.380;2022-08-19T14:32:25;5.50;;;4.97;;
39300;SDS011;25019;42.626;23.380;2022-08-19T14:34:52;6.00;;;4.70;;
39300;SDS011;25019;42.626;23.380;2022-08-19T14:37:18;9.13;;;5.67;;
39300;SDS011;25019;42.626;23.380;2022-08-19T14:39:44;7.73;;;5.00;;
39300;SDS011;25019;42.626;23.380;2022-08-19T14:42:10;9.33;;;5.27;;
39300;SDS011;25019;42.626;23.380;2022-08-19T14:44:36;5.68;;;4.57;;
39300;SDS011;25019;42.626;23.380;2022-08-19T14:47:02;7.77;;;5.00;;